sensor_id;sensor_type;location;lat;lon;timestamp;P1;durP1;ratioP1;P2;durP2;ratioP2
59089;SDS011;44878;50.102;18.982;2023-04-29T00:01:00;26.00;;;19.70;;
59089;SDS011;44878;50.102;18.982;2023-04-29T00:03:27;25.15;;;20.50;;
59089;SDS011;44878;50.102;18.982;2023-04-29T00:05:57;24.80;;;21.17;;
59089;SDS011;44878;50.102;18.982;2023-04-29T00:08:23;27.33;;;20.98;;
59089;SDS011;44878;50.102;18.982;2023-04-29T00:10:49;27.15;;;21.80;;
59089;SDS011;44878;50.102;18.982;2023-04-29T00:13:15;28.33;;;23.65;;
59089;SDS011;44878;50.102;18.982;2023-04-29T00:15:41;26.55;;;22.52;;
59089;SDS011;44878;50.102;18.982;2023-04-29T00:18:07;27.75;;;22.38;;
59089;SDS011;44878;50.102;18.982;2023-04-29T00:20:37;28.88;;;24.02;;
59089;SDS011;44878;50.102;18.982;2023-04-29T00:23:03;30.45;;;23.92;;
59089;SDS011;44878;50.102;18.982;2023-04-29T00:25:31;29.55;;;24.38;;
59089;SDS011;44878;50.102;18.982;2023-04-29T00:27:57;29.50;;;24.50;;
59089;SDS011;44878;50.102;18.982;2023-04-29T00:30:27;32.00;;;24.88;;
59089;SDS011;44878;50.102;18.982;2023-04-29T00:32:53;32.50;;;24.55;;
59089;SDS011;44878;50.102;18.982;2023-04-29T00:35:20;29.20;;;24.97;;
59089;SDS011;44878;50.102;18.982;2023-04-29T00:37:49;32.50;;;25.15;;
59089;SDS011;44878;50.102;18.982;2023-04-29T00:40:15;31.25;;;24.63;;
59089;SDS011;44878;50.102;18.982;2023-04-29T00:42:42;31.08;;;23.77;;
59089;SDS011;44878;50.102;18.982;2023-04-29T00:45:08;29.27;;;23.55;;
59089;SDS011;44878;50.102;18.982;2023-04-29T00:47:36;29.17;;;24.55;;
59089;SDS011;44878;50.102;18.982;2023-04-29T00:50:02;31.80;;;23.35;;
59089;SDS011;44878;50.102;18.982;2023-04-29T00:52:29;27.95;;;23.13;;
59089;SDS011;44878;50.102;18.982;2023-04-29T00:54:56;28.42;;;22.77;;
59089;SDS011;44878;50.102;18.982;2023-04-29T00:57:22;29.48;;;23.10;;
59089;SDS011;44878;50.102;18.982;2023-04-29T00:59:48;25.67;;;21.88;;
59089;SDS011;44878;50.102;18.982;2023-04-29T01:02:14;25.75;;;20.98;;
59089;SDS011;44878;50.102;18.982;2023-04-29T01:04:45;25.73;;;21.48;;
59089;SDS011;44878;50.102;18.982;2023-04-29T01:10:03;25.30;;;21.60;;
59089;SDS011;44878;50.102;18.982;2023-04-29T01:20:30;27.87;;;22.33;;
59089;SDS011;44878;50.102;18.982;2023-04-29T01:22:56;30.65;;;23.20;;
59089;SDS011;44878;50.102;18.982;2023-04-29T01:25:22;28.13;;;23.47;;
59089;SDS011;44878;50.102;18.982;2023-04-29T01:33:30;31.52;;;24.77;;
59089;SDS011;44878;50.102;18.982;2023-04-29T01:43:38;28.77;;;25.65;;
59089;SDS011;44878;50.102;18.982;2023-04-29T01:46:05;31.43;;;24.73;;
59089;SDS011;44878;50.102;18.982;2023-04-29T01:48:33;29.33;;;24.88;;
59089;SDS011;44878;50.102;18.982;2023-04-29T01:51:02;31.10;;;27.40;;
59089;SDS011;44878;50.102;18.982;2023-04-29T01:55:57;32.45;;;27.23;;
59089;SDS011;44878;50.102;18.982;2023-04-29T01:58:23;28.92;;;25.02;;
59089;SDS011;44878;50.102;18.982;2023-04-29T02:00:49;30.57;;;24.53;;
59089;SDS011;44878;50.102;18.982;2023-04-29T02:03:15;27.77;;;24.33;;
59089;SDS011;44878;50.102;18.982;2023-04-29T02:05:42;28.50;;;24.25;;
59089;SDS011;44878;50.102;18.982;2023-04-29T02:08:07;33.97;;;26.33;;
59089;SDS011;44878;50.102;18.982;2023-04-29T02:10:33;31.20;;;25.60;;
59089;SDS011;44878;50.102;18.982;2023-04-29T02:12:59;33.33;;;26.42;;
59089;SDS011;44878;50.102;18.982;2023-04-29T02:15:26;31.60;;;26.17;;
59089;SDS011;44878;50.102;18.982;2023-04-29T02:17:52;36.53;;;26.92;;
59089;SDS011;44878;50.102;18.982;2023-04-29T02:20:19;30.55;;;27.25;;
59089;SDS011;44878;50.102;18.982;2023-04-29T02:22:45;32.03;;;28.20;;
59089;SDS011;44878;50.102;18.982;2023-04-29T02:25:11;34.10;;;27.23;;
59089;SDS011;44878;50.102;18.982;2023-04-29T02:27:36;31.93;;;28.20;;
59089;SDS011;44878;50.102;18.982;2023-04-29T02:30:02;32.90;;;26.23;;
59089;SDS011;44878;50.102;18.982;2023-04-29T02:32:29;34.50;;;25.67;;
59089;SDS011;44878;50.102;18.982;2023-04-29T02:34:55;31.60;;;25.00;;
59089;SDS011;44878;50.102;18.982;2023-04-29T02:37:22;28.40;;;24.77;;
59089;SDS011;44878;50.102;18.982;2023-04-29T02:39:48;31.23;;;24.88;;
59089;SDS011;44878;50.102;18.982;2023-04-29T02:42:14;29.70;;;24.47;;
59089;SDS011;44878;50.102;18.982;2023-04-29T02:44:40;28.93;;;23.93;;
59089;SDS011;44878;50.102;18.982;2023-04-29T02:47:07;32.60;;;24.53;;
59089;SDS011;44878;50.102;18.982;2023-04-29T02:49:33;32.47;;;24.53;;
59089;SDS011;44878;50.102;18.982;2023-04-29T02:51:58;30.60;;;24.90;;
59089;SDS011;44878;50.102;18.982;2023-04-29T02:54:24;29.60;;;25.40;;
59089;SDS011;44878;50.102;18.982;2023-04-29T02:56:50;31.67;;;24.65;;
59089;SDS011;44878;50.102;18.982;2023-04-29T02:59:16;32.30;;;25.33;;
59089;SDS011;44878;50.102;18.982;2023-04-29T03:01:42;29.57;;;24.93;;
59089;SDS011;44878;50.102;18.982;2023-04-29T03:04:08;32.10;;;25.27;;
59089;SDS011;44878;50.102;18.982;2023-04-29T03:06:34;30.60;;;24.77;;
59089;SDS011;44878;50.102;18.982;2023-04-29T03:09:00;29.83;;;24.40;;
59089;SDS011;44878;50.102;18.982;2023-04-29T03:11:26;30.03;;;24.57;;
59089;SDS011;44878;50.102;18.982;2023-04-29T03:13:52;33.23;;;25.33;;
59089;SDS011;44878;50.102;18.982;2023-04-29T03:16:18;31.50;;;26.10;;
59089;SDS011;44878;50.102;18.982;2023-04-29T03:18:44;29.37;;;25.93;;
59089;SDS011;44878;50.102;18.982;2023-04-29T03:21:10;32.77;;;26.83;;
59089;SDS011;44878;50.102;18.982;2023-04-29T03:23:36;33.57;;;27.70;;
59089;SDS011;44878;50.102;18.982;2023-04-29T03:26:04;35.22;;;28.50;;
59089;SDS011;44878;50.102;18.982;2023-04-29T03:28:32;33.30;;;27.83;;
59089;SDS011;44878;50.102;18.982;2023-04-29T03:30:58;34.07;;;30.43;;
59089;SDS011;44878;50.102;18.982;2023-04-29T03:33:25;33.87;;;29.40;;
59089;SDS011;44878;50.102;18.982;2023-04-29T03:35:50;32.23;;;28.73;;
59089;SDS011;44878;50.102;18.982;2023-04-29T03:38:16;42.37;;;34.93;;
59089;SDS011;44878;50.102;18.982;2023-04-29T03:40:42;55.57;;;42.27;;
59089;SDS011;44878;50.102;18.982;2023-04-29T03:43:10;47.92;;;39.70;;
59089;SDS011;44878;50.102;18.982;2023-04-29T03:45:36;41.90;;;32.97;;
59089;SDS011;44878;50.102;18.982;2023-04-29T03:48:03;35.77;;;31.93;;
59089;SDS011;44878;50.102;18.982;2023-04-29T03:50:28;35.20;;;31.27;;
59089;SDS011;44878;50.102;18.982;2023-04-29T03:52:54;35.37;;;30.77;;
59089;SDS011;44878;50.102;18.982;2023-04-29T03:55:20;33.93;;;29.50;;
59089;SDS011;44878;50.102;18.982;2023-04-29T03:57:46;33.57;;;29.17;;
59089;SDS011;44878;50.102;18.982;2023-04-29T04:00:12;35.93;;;29.30;;
59089;SDS011;44878;50.102;18.982;2023-04-29T04:02:38;30.77;;;27.53;;
59089;SDS011;44878;50.102;18.982;2023-04-29T04:05:04;32.63;;;29.13;;
59089;SDS011;44878;50.102;18.982;2023-04-29T04:07:30;35.67;;;28.80;;
59089;SDS011;44878;50.102;18.982;2023-04-29T04:09:56;34.33;;;30.63;;
59089;SDS011;44878;50.102;18.982;2023-04-29T04:12:22;33.80;;;29.37;;
59089;SDS011;44878;50.102;18.982;2023-04-29T04:14:47;34.00;;;30.23;;
59089;SDS011;44878;50.102;18.982;2023-04-29T04:17:13;38.57;;;31.53;;
59089;SDS011;44878;50.102;18.982;2023-04-29T04:19:39;36.23;;;31.37;;
59089;SDS011;44878;50.102;18.982;2023-04-29T04:22:05;36.73;;;32.53;;
59089;SDS011;44878;50.102;18.982;2023-04-29T04:24:31;35.27;;;31.17;;
59089;SDS011;44878;50.102;18.982;2023-04-29T04:26:58;37.60;;;33.53;;
59089;SDS011;44878;50.102;18.982;2023-04-29T04:29:23;39.33;;;33.50;;
59089;SDS011;44878;50.102;18.982;2023-04-29T04:31:50;34.57;;;30.87;;
59089;SDS011;44878;50.102;18.982;2023-04-29T04:34:15;37.13;;;30.30;;
59089;SDS011;44878;50.102;18.982;2023-04-29T04:36:41;33.70;;;30.30;;
59089;SDS011;44878;50.102;18.982;2023-04-29T04:39:07;35.60;;;31.90;;
59089;SDS011;44878;50.102;18.982;2023-04-29T04:41:33;34.97;;;31.37;;
59089;SDS011;44878;50.102;18.982;2023-04-29T04:43:59;34.73;;;30.50;;
59089;SDS011;44878;50.102;18.982;2023-04-29T04:46:25;37.50;;;29.63;;
59089;SDS011;44878;50.102;18.982;2023-04-29T04:48:54;33.47;;;30.10;;
59089;SDS011;44878;50.102;18.982;2023-04-29T04:51:20;32.20;;;28.70;;
59089;SDS011;44878;50.102;18.982;2023-04-29T04:53:46;32.80;;;29.30;;
59089;SDS011;44878;50.102;18.982;2023-04-29T04:56:12;33.93;;;30.33;;
59089;SDS011;44878;50.102;18.982;2023-04-29T04:58:37;31.77;;;28.33;;
59089;SDS011;44878;50.102;18.982;2023-04-29T05:01:04;33.43;;;29.97;;
59089;SDS011;44878;50.102;18.982;2023-04-29T05:03:32;33.37;;;29.90;;
59089;SDS011;44878;50.102;18.982;2023-04-29T05:05:59;33.73;;;30.03;;
59089;SDS011;44878;50.102;18.982;2023-04-29T05:08:25;33.30;;;29.80;;
59089;SDS011;44878;50.102;18.982;2023-04-29T05:10:51;34.37;;;30.67;;
59089;SDS011;44878;50.102;18.982;2023-04-29T05:13:17;36.03;;;32.22;;
59089;SDS011;44878;50.102;18.982;2023-04-29T05:15:46;35.90;;;31.97;;
59089;SDS011;44878;50.102;18.982;2023-04-29T05:18:12;35.53;;;32.00;;
59089;SDS011;44878;50.102;18.982;2023-04-29T05:20:38;39.83;;;32.57;;
59089;SDS011;44878;50.102;18.982;2023-04-29T05:23:06;36.47;;;32.57;;
59089;SDS011;44878;50.102;18.982;2023-04-29T05:25:33;39.80;;;35.60;;
59089;SDS011;44878;50.102;18.982;2023-04-29T05:27:59;34.65;;;30.95;;
59089;SDS011;44878;50.102;18.982;2023-04-29T05:30:25;32.50;;;29.20;;
59089;SDS011;44878;50.102;18.982;2023-04-29T05:32:51;33.75;;;30.27;;
59089;SDS011;44878;50.102;18.982;2023-04-29T05:35:17;31.83;;;28.48;;
59089;SDS011;44878;50.102;18.982;2023-04-29T05:37:43;33.27;;;29.63;;
59089;SDS011;44878;50.102;18.982;2023-04-29T05:40:09;30.08;;;27.10;;
59089;SDS011;44878;50.102;18.982;2023-04-29T05:42:35;29.00;;;26.10;;
59089;SDS011;44878;50.102;18.982;2023-04-29T05:45:01;30.75;;;26.35;;
59089;SDS011;44878;50.102;18.982;2023-04-29T05:47:26;27.55;;;24.83;;
59089;SDS011;44878;50.102;18.982;2023-04-29T05:49:52;29.08;;;25.45;;
59089;SDS011;44878;50.102;18.982;2023-04-29T05:52:18;31.48;;;26.00;;
59089;SDS011;44878;50.102;18.982;2023-04-29T05:54:44;28.00;;;25.00;;
59089;SDS011;44878;50.102;18.982;2023-04-29T05:57:10;26.75;;;23.95;;
59089;SDS011;44878;50.102;18.982;2023-04-29T05:59:36;27.45;;;23.73;;
59089;SDS011;44878;50.102;18.982;2023-04-29T06:02:01;25.95;;;23.33;;
59089;SDS011;44878;50.102;18.982;2023-04-29T06:04:27;26.75;;;24.13;;
59089;SDS011;44878;50.102;18.982;2023-04-29T06:06:54;26.60;;;23.60;;
59089;SDS011;44878;50.102;18.982;2023-04-29T06:09:21;25.52;;;23.02;;
59089;SDS011;44878;50.102;18.982;2023-04-29T06:11:47;27.02;;;24.08;;
59089;SDS011;44878;50.102;18.982;2023-04-29T06:14:13;25.90;;;23.20;;
59089;SDS011;44878;50.102;18.982;2023-04-29T06:16:39;26.60;;;24.00;;
59089;SDS011;44878;50.102;18.982;2023-04-29T06:19:05;26.88;;;24.02;;
59089;SDS011;44878;50.102;18.982;2023-04-29T06:21:31;29.55;;;25.40;;
59089;SDS011;44878;50.102;18.982;2023-04-29T06:23:57;27.88;;;25.30;;
59089;SDS011;44878;50.102;18.982;2023-04-29T06:26:23;29.48;;;26.38;;
59089;SDS011;44878;50.102;18.982;2023-04-29T06:28:49;30.67;;;27.40;;
59089;SDS011;44878;50.102;18.982;2023-04-29T06:31:15;31.27;;;28.17;;
59089;SDS011;44878;50.102;18.982;2023-04-29T06:33:40;31.23;;;28.23;;
59089;SDS011;44878;50.102;18.982;2023-04-29T06:36:07;34.47;;;30.58;;
59089;SDS011;44878;50.102;18.982;2023-04-29T06:38:32;34.15;;;30.50;;
59089;SDS011;44878;50.102;18.982;2023-04-29T06:40:58;32.72;;;29.33;;
59089;SDS011;44878;50.102;18.982;2023-04-29T06:43:27;33.00;;;29.75;;
59089;SDS011;44878;50.102;18.982;2023-04-29T06:45:53;34.95;;;31.45;;
59089;SDS011;44878;50.102;18.982;2023-04-29T06:48:19;34.53;;;31.33;;
59089;SDS011;44878;50.102;18.982;2023-04-29T06:50:52;34.90;;;31.42;;
59089;SDS011;44878;50.102;18.982;2023-04-29T06:53:19;31.00;;;27.73;;
59089;SDS011;44878;50.102;18.982;2023-04-29T06:55:45;31.52;;;28.35;;
59089;SDS011;44878;50.102;18.982;2023-04-29T06:58:14;34.20;;;31.00;;
59089;SDS011;44878;50.102;18.982;2023-04-29T07:00:47;32.67;;;29.60;;
59089;SDS011;44878;50.102;18.982;2023-04-29T07:03:14;31.20;;;28.17;;
59089;SDS011;44878;50.102;18.982;2023-04-29T07:05:40;31.33;;;28.08;;
59089;SDS011;44878;50.102;18.982;2023-04-29T07:08:10;32.92;;;29.80;;
59089;SDS011;44878;50.102;18.982;2023-04-29T07:10:37;34.95;;;31.27;;
59089;SDS011;44878;50.102;18.982;2023-04-29T07:13:02;34.78;;;31.40;;
59089;SDS011;44878;50.102;18.982;2023-04-29T07:15:29;32.42;;;29.25;;
59089;SDS011;44878;50.102;18.982;2023-04-29T07:17:55;32.50;;;29.30;;
59089;SDS011;44878;50.102;18.982;2023-04-29T07:20:21;36.30;;;32.75;;
59089;SDS011;44878;50.102;18.982;2023-04-29T07:22:47;35.85;;;32.22;;
59089;SDS011;44878;50.102;18.982;2023-04-29T07:25:13;35.13;;;31.75;;
59089;SDS011;44878;50.102;18.982;2023-04-29T07:27:39;33.00;;;29.85;;
59089;SDS011;44878;50.102;18.982;2023-04-29T07:30:05;29.55;;;26.63;;
59089;SDS011;44878;50.102;18.982;2023-04-29T07:32:31;28.23;;;25.33;;
59089;SDS011;44878;50.102;18.982;2023-04-29T07:34:57;27.88;;;25.00;;
59089;SDS011;44878;50.102;18.982;2023-04-29T07:37:23;25.33;;;22.92;;
59089;SDS011;44878;50.102;18.982;2023-04-29T07:39:49;24.50;;;22.08;;
59089;SDS011;44878;50.102;18.982;2023-04-29T07:42:15;25.27;;;22.67;;
59089;SDS011;44878;50.102;18.982;2023-04-29T07:44:41;24.65;;;22.30;;
59089;SDS011;44878;50.102;18.982;2023-04-29T07:47:07;23.98;;;21.70;;
59089;SDS011;44878;50.102;18.982;2023-04-29T07:49:33;25.77;;;23.25;;
59089;SDS011;44878;50.102;18.982;2023-04-29T07:51:59;26.10;;;23.42;;
59089;SDS011;44878;50.102;18.982;2023-04-29T07:54:27;24.88;;;22.40;;
59089;SDS011;44878;50.102;18.982;2023-04-29T07:56:52;24.95;;;22.67;;
59089;SDS011;44878;50.102;18.982;2023-04-29T07:59:18;26.20;;;23.60;;
59089;SDS011;44878;50.102;18.982;2023-04-29T08:01:44;26.80;;;24.08;;
59089;SDS011;44878;50.102;18.982;2023-04-29T08:04:10;24.92;;;22.38;;
59089;SDS011;44878;50.102;18.982;2023-04-29T08:06:35;25.70;;;22.95;;
59089;SDS011;44878;50.102;18.982;2023-04-29T08:09:02;26.65;;;24.05;;
59089;SDS011;44878;50.102;18.982;2023-04-29T08:11:27;26.98;;;24.33;;
59089;SDS011;44878;50.102;18.982;2023-04-29T08:13:53;26.27;;;23.77;;
59089;SDS011;44878;50.102;18.982;2023-04-29T08:16:21;25.77;;;23.20;;
59089;SDS011;44878;50.102;18.982;2023-04-29T08:21:14;23.75;;;21.55;;
59089;SDS011;44878;50.102;18.982;2023-04-29T08:23:40;25.17;;;22.77;;
59089;SDS011;44878;50.102;18.982;2023-04-29T08:26:06;24.10;;;21.73;;
59089;SDS011;44878;50.102;18.982;2023-04-29T08:28:34;22.33;;;20.27;;
59089;SDS011;44878;50.102;18.982;2023-04-29T08:30:59;22.55;;;20.35;;
59089;SDS011;44878;50.102;18.982;2023-04-29T08:33:26;24.08;;;21.55;;
59089;SDS011;44878;50.102;18.982;2023-04-29T08:35:58;22.38;;;20.27;;
59089;SDS011;44878;50.102;18.982;2023-04-29T08:38:28;20.60;;;18.52;;
59089;SDS011;44878;50.102;18.982;2023-04-29T08:40:54;20.77;;;17.48;;
59089;SDS011;44878;50.102;18.982;2023-04-29T08:43:21;18.77;;;16.48;;
59089;SDS011;44878;50.102;18.982;2023-04-29T08:45:50;18.85;;;16.98;;
59089;SDS011;44878;50.102;18.982;2023-04-29T08:48:16;17.58;;;15.68;;
59089;SDS011;44878;50.102;18.982;2023-04-29T08:50:43;17.85;;;15.95;;
59089;SDS011;44878;50.102;18.982;2023-04-29T08:53:10;16.05;;;14.45;;
59089;SDS011;44878;50.102;18.982;2023-04-29T08:55:45;16.70;;;14.70;;
59089;SDS011;44878;50.102;18.982;2023-04-29T08:58:12;19.77;;;15.70;;
59089;SDS011;44878;50.102;18.982;2023-04-29T09:00:38;16.37;;;14.50;;
59089;SDS011;44878;50.102;18.982;2023-04-29T09:05:51;16.65;;;13.60;;
59089;SDS011;44878;50.102;18.982;2023-04-29T09:08:18;13.18;;;11.68;;
59089;SDS011;44878;50.102;18.982;2023-04-29T09:10:45;14.15;;;11.90;;
59089;SDS011;44878;50.102;18.982;2023-04-29T09:13:28;11.85;;;10.20;;
59089;SDS011;44878;50.102;18.982;2023-04-29T09:15:54;14.18;;;8.80;;
59089;SDS011;44878;50.102;18.982;2023-04-29T09:21:21;10.05;;;7.90;;
59089;SDS011;44878;50.102;18.982;2023-04-29T09:23:48;19.05;;;8.43;;
59089;SDS011;44878;50.102;18.982;2023-04-29T09:26:15;9.98;;;7.68;;
59089;SDS011;44878;50.102;18.982;2023-04-29T09:28:41;9.25;;;7.22;;
59089;SDS011;44878;50.102;18.982;2023-04-29T09:31:09;9.43;;;6.97;;
59089;SDS011;44878;50.102;18.982;2023-04-29T09:33:49;10.63;;;7.60;;
59089;SDS011;44878;50.102;18.982;2023-04-29T09:36:33;9.95;;;6.63;;
59089;SDS011;44878;50.102;18.982;2023-04-29T09:38:59;11.27;;;7.75;;
59089;SDS011;44878;50.102;18.982;2023-04-29T09:41:25;11.10;;;8.23;;
59089;SDS011;44878;50.102;18.982;2023-04-29T09:44:04;11.02;;;9.02;;
59089;SDS011;44878;50.102;18.982;2023-04-29T09:46:31;11.20;;;7.57;;
59089;SDS011;44878;50.102;18.982;2023-04-29T09:48:57;11.85;;;8.02;;
59089;SDS011;44878;50.102;18.982;2023-04-29T09:51:23;9.77;;;7.80;;
59089;SDS011;44878;50.102;18.982;2023-04-29T09:53:49;12.52;;;7.90;;
59089;SDS011;44878;50.102;18.982;2023-04-29T09:56:15;13.45;;;8.88;;
59089;SDS011;44878;50.102;18.982;2023-04-29T09:58:41;9.45;;;8.25;;
59089;SDS011;44878;50.102;18.982;2023-04-29T10:01:07;12.50;;;7.82;;
59089;SDS011;44878;50.102;18.982;2023-04-29T10:03:33;12.32;;;8.10;;
59089;SDS011;44878;50.102;18.982;2023-04-29T10:06:00;11.02;;;8.00;;
59089;SDS011;44878;50.102;18.982;2023-04-29T10:08:26;11.93;;;10.55;;
59089;SDS011;44878;50.102;18.982;2023-04-29T10:10:53;9.88;;;7.95;;
59089;SDS011;44878;50.102;18.982;2023-04-29T10:13:23;12.30;;;8.88;;
59089;SDS011;44878;50.102;18.982;2023-04-29T10:15:51;12.88;;;9.00;;
59089;SDS011;44878;50.102;18.982;2023-04-29T10:18:21;9.60;;;8.00;;
59089;SDS011;44878;50.102;18.982;2023-04-29T10:20:50;11.52;;;8.88;;
59089;SDS011;44878;50.102;18.982;2023-04-29T10:23:17;9.00;;;7.40;;
59089;SDS011;44878;50.102;18.982;2023-04-29T10:28:11;12.65;;;8.27;;
59089;SDS011;44878;50.102;18.982;2023-04-29T10:30:43;9.73;;;7.07;;
59089;SDS011;44878;50.102;18.982;2023-04-29T10:33:10;10.55;;;7.38;;
59089;SDS011;44878;50.102;18.982;2023-04-29T10:35:36;11.73;;;7.72;;
59089;SDS011;44878;50.102;18.982;2023-04-29T10:38:07;65.35;;;56.83;;
59089;SDS011;44878;50.102;18.982;2023-04-29T10:40:39;13.95;;;10.68;;
59089;SDS011;44878;50.102;18.982;2023-04-29T10:43:06;11.52;;;8.07;;
59089;SDS011;44878;50.102;18.982;2023-04-29T10:45:32;9.93;;;7.72;;
59089;SDS011;44878;50.102;18.982;2023-04-29T10:53:12;12.13;;;9.60;;
59089;SDS011;44878;50.102;18.982;2023-04-29T10:55:41;11.35;;;9.13;;
59089;SDS011;44878;50.102;18.982;2023-04-29T11:00:51;12.02;;;9.65;;
59089;SDS011;44878;50.102;18.982;2023-04-29T11:06:11;11.32;;;8.45;;
59089;SDS011;44878;50.102;18.982;2023-04-29T11:08:37;10.75;;;8.45;;
59089;SDS011;44878;50.102;18.982;2023-04-29T11:11:07;12.13;;;9.25;;
59089;SDS011;44878;50.102;18.982;2023-04-29T11:13:39;13.70;;;9.40;;
59089;SDS011;44878;50.102;18.982;2023-04-29T11:16:06;13.82;;;9.38;;
59089;SDS011;44878;50.102;18.982;2023-04-29T11:21:21;12.40;;;9.98;;
59089;SDS011;44878;50.102;18.982;2023-04-29T11:23:48;13.93;;;10.02;;
59089;SDS011;44878;50.102;18.982;2023-04-29T11:26:17;14.02;;;10.68;;
59089;SDS011;44878;50.102;18.982;2023-04-29T11:28:44;17.63;;;10.82;;
59089;SDS011;44878;50.102;18.982;2023-04-29T11:31:10;13.23;;;10.48;;
59089;SDS011;44878;50.102;18.982;2023-04-29T11:33:36;12.10;;;10.63;;
59089;SDS011;44878;50.102;18.982;2023-04-29T11:36:02;12.40;;;10.05;;
59089;SDS011;44878;50.102;18.982;2023-04-29T11:38:29;13.85;;;11.55;;
59089;SDS011;44878;50.102;18.982;2023-04-29T11:40:55;14.07;;;10.98;;
59089;SDS011;44878;50.102;18.982;2023-04-29T11:43:24;13.02;;;11.27;;
59089;SDS011;44878;50.102;18.982;2023-04-29T11:45:51;13.95;;;12.23;;
59089;SDS011;44878;50.102;18.982;2023-04-29T11:48:24;14.60;;;12.47;;
59089;SDS011;44878;50.102;18.982;2023-04-29T11:50:56;15.88;;;12.75;;
59089;SDS011;44878;50.102;18.982;2023-04-29T11:53:24;15.07;;;12.93;;
59089;SDS011;44878;50.102;18.982;2023-04-29T11:55:53;14.23;;;11.80;;
59089;SDS011;44878;50.102;18.982;2023-04-29T11:58:19;13.93;;;11.95;;
59089;SDS011;44878;50.102;18.982;2023-04-29T12:00:46;14.20;;;12.48;;
59089;SDS011;44878;50.102;18.982;2023-04-29T12:03:15;13.15;;;11.50;;
59089;SDS011;44878;50.102;18.982;2023-04-29T12:05:49;15.52;;;10.77;;
59089;SDS011;44878;50.102;18.982;2023-04-29T12:08:22;11.07;;;8.63;;
59089;SDS011;44878;50.102;18.982;2023-04-29T12:10:48;9.18;;;6.22;;
59089;SDS011;44878;50.102;18.982;2023-04-29T12:13:18;9.43;;;7.35;;
59089;SDS011;44878;50.102;18.982;2023-04-29T12:15:47;8.15;;;6.38;;
59089;SDS011;44878;50.102;18.982;2023-04-29T12:18:14;8.60;;;5.40;;
59089;SDS011;44878;50.102;18.982;2023-04-29T12:20:40;8.15;;;6.20;;
59089;SDS011;44878;50.102;18.982;2023-04-29T12:23:13;7.93;;;6.28;;
59089;SDS011;44878;50.102;18.982;2023-04-29T12:25:39;7.95;;;5.93;;
59089;SDS011;44878;50.102;18.982;2023-04-29T12:28:12;10.43;;;5.90;;
59089;SDS011;44878;50.102;18.982;2023-04-29T12:30:37;9.55;;;8.18;;
59089;SDS011;44878;50.102;18.982;2023-04-29T12:33:05;8.20;;;7.10;;
59089;SDS011;44878;50.102;18.982;2023-04-29T12:35:38;8.38;;;6.13;;
59089;SDS011;44878;50.102;18.982;2023-04-29T12:38:05;8.63;;;6.80;;
59089;SDS011;44878;50.102;18.982;2023-04-29T12:40:31;10.98;;;8.73;;
59089;SDS011;44878;50.102;18.982;2023-04-29T12:43:05;11.50;;;9.50;;
59089;SDS011;44878;50.102;18.982;2023-04-29T12:45:32;12.07;;;9.73;;
59089;SDS011;44878;50.102;18.982;2023-04-29T12:47:59;11.82;;;10.15;;
59089;SDS011;44878;50.102;18.982;2023-04-29T12:50:29;10.07;;;8.23;;
59089;SDS011;44878;50.102;18.982;2023-04-29T12:52:56;9.32;;;6.85;;
59089;SDS011;44878;50.102;18.982;2023-04-29T12:55:21;8.30;;;6.85;;
59089;SDS011;44878;50.102;18.982;2023-04-29T12:57:47;7.75;;;6.50;;
59089;SDS011;44878;50.102;18.982;2023-04-29T13:00:13;7.28;;;6.10;;
59089;SDS011;44878;50.102;18.982;2023-04-29T13:02:40;7.45;;;6.53;;
59089;SDS011;44878;50.102;18.982;2023-04-29T13:05:06;8.38;;;6.35;;
59089;SDS011;44878;50.102;18.982;2023-04-29T13:07:32;14.60;;;13.07;;
59089;SDS011;44878;50.102;18.982;2023-04-29T13:10:01;8.27;;;5.70;;
59089;SDS011;44878;50.102;18.982;2023-04-29T13:12:27;9.55;;;8.18;;
59089;SDS011;44878;50.102;18.982;2023-04-29T13:14:53;9.40;;;8.13;;
59089;SDS011;44878;50.102;18.982;2023-04-29T13:17:19;11.27;;;9.15;;
59089;SDS011;44878;50.102;18.982;2023-04-29T13:19:45;11.60;;;9.13;;
59089;SDS011;44878;50.102;18.982;2023-04-29T13:22:12;10.88;;;8.73;;
59089;SDS011;44878;50.102;18.982;2023-04-29T13:24:37;10.30;;;8.82;;
59089;SDS011;44878;50.102;18.982;2023-04-29T13:27:03;9.70;;;8.15;;
59089;SDS011;44878;50.102;18.982;2023-04-29T13:29:30;9.90;;;8.68;;
59089;SDS011;44878;50.102;18.982;2023-04-29T13:31:59;10.45;;;8.07;;
59089;SDS011;44878;50.102;18.982;2023-04-29T13:34:25;11.15;;;9.75;;
59089;SDS011;44878;50.102;18.982;2023-04-29T13:36:51;9.98;;;8.48;;
59089;SDS011;44878;50.102;18.982;2023-04-29T13:39:16;8.57;;;7.22;;
59089;SDS011;44878;50.102;18.982;2023-04-29T13:44:10;7.50;;;5.60;;
59089;SDS011;44878;50.102;18.982;2023-04-29T13:46:37;14.85;;;12.50;;
59089;SDS011;44878;50.102;18.982;2023-04-29T13:49:02;7.57;;;6.05;;
59089;SDS011;44878;50.102;18.982;2023-04-29T13:51:28;7.10;;;5.72;;
59089;SDS011;44878;50.102;18.982;2023-04-29T13:53:54;7.40;;;6.22;;
59089;SDS011;44878;50.102;18.982;2023-04-29T13:56:20;7.50;;;5.65;;
59089;SDS011;44878;50.102;18.982;2023-04-29T13:58:47;6.90;;;5.38;;
59089;SDS011;44878;50.102;18.982;2023-04-29T14:01:14;8.13;;;6.05;;
59089;SDS011;44878;50.102;18.982;2023-04-29T14:03:41;7.32;;;5.70;;
59089;SDS011;44878;50.102;18.982;2023-04-29T14:06:07;6.90;;;5.45;;
59089;SDS011;44878;50.102;18.982;2023-04-29T14:08:35;6.10;;;5.38;;
59089;SDS011;44878;50.102;18.982;2023-04-29T14:11:01;5.90;;;5.30;;
59089;SDS011;44878;50.102;18.982;2023-04-29T14:13:27;6.32;;;5.10;;
59089;SDS011;44878;50.102;18.982;2023-04-29T14:15:54;6.80;;;6.10;;
59089;SDS011;44878;50.102;18.982;2023-04-29T14:18:20;7.32;;;6.45;;
59089;SDS011;44878;50.102;18.982;2023-04-29T14:20:47;8.90;;;6.82;;
59089;SDS011;44878;50.102;18.982;2023-04-29T14:23:12;8.32;;;7.53;;
59089;SDS011;44878;50.102;18.982;2023-04-29T14:25:38;8.82;;;7.93;;
59089;SDS011;44878;50.102;18.982;2023-04-29T14:28:04;8.60;;;7.47;;
59089;SDS011;44878;50.102;18.982;2023-04-29T14:30:33;10.10;;;6.95;;
59089;SDS011;44878;50.102;18.982;2023-04-29T14:32:59;7.65;;;6.60;;
59089;SDS011;44878;50.102;18.982;2023-04-29T14:35:25;9.07;;;7.85;;
59089;SDS011;44878;50.102;18.982;2023-04-29T14:37:53;8.45;;;7.55;;
59089;SDS011;44878;50.102;18.982;2023-04-29T14:40:19;8.20;;;6.97;;
59089;SDS011;44878;50.102;18.982;2023-04-29T14:42:45;9.38;;;7.63;;
59089;SDS011;44878;50.102;18.982;2023-04-29T14:45:12;7.32;;;6.63;;
59089;SDS011;44878;50.102;18.982;2023-04-29T14:47:37;7.95;;;7.15;;
59089;SDS011;44878;50.102;18.982;2023-04-29T14:50:03;8.48;;;6.88;;
59089;SDS011;44878;50.102;18.982;2023-04-29T14:52:30;7.97;;;6.28;;
59089;SDS011;44878;50.102;18.982;2023-04-29T14:54:56;6.65;;;5.72;;
59089;SDS011;44878;50.102;18.982;2023-04-29T14:57:21;8.10;;;5.93;;
59089;SDS011;44878;50.102;18.982;2023-04-29T14:59:48;7.75;;;6.18;;
59089;SDS011;44878;50.102;18.982;2023-04-29T15:02:14;9.32;;;7.07;;
59089;SDS011;44878;50.102;18.982;2023-04-29T15:04:40;8.60;;;6.45;;
59089;SDS011;44878;50.102;18.982;2023-04-29T15:07:11;7.93;;;6.35;;